Time;durP1;ratioP1;P1;durP2;ratioP2;P2;SDS_P1;SDS_P2;PMS_P1;PMS_P2;Temp;Humidity;BMP_temperature;BMP_pressure;BME280_temperature;BME280_humidity;BME280_pressure;Samples;Min_cycle;Max_cycle;Signal;HPM_P1;HPM_P2
2022/05/31 00:01:47;;;;;;;3.58;1.70;;;10.90;72.40;;;;;;5051696;28;20423;-69
2022/05/31 00:04:13;;;;;;;8.20;1.80;;;10.90;72.80;;;;;;5050101;28;20029;-69
2022/05/31 00:06:39;;;;;;;4.10;1.65;;;10.90;72.70;;;;;;5057114;28;20025;-68
2022/05/31 00:09:05;;;;;;;4.55;1.90;;;10.90;73.10;;;;;;5051706;28;20025;-69
2022/05/31 00:11:31;;;;;;;6.43;2.17;;;10.80;73.20;;;;;;5054804;28;20033;-69
2022/05/31 00:13:56;;;;;;;4.32;1.88;;;10.80;73.40;;;;;;5054612;28;20354;-68
2022/05/31 00:16:24;;;;;;;3.85;1.70;;;10.70;73.40;;;;;;5055874;28;20021;-69
2022/05/31 00:18:53;;;;;;;4.35;1.92;;;10.70;73.50;;;;;;5051236;28;20017;-69
2022/05/31 00:21:19;;;;;;;3.70;1.88;;;10.80;73.30;;;;;;5052715;28;20036;-68
2022/05/31 00:23:45;;;;;;;3.92;1.92;;;10.80;73.30;;;;;;5055990;28;20318;-69
2022/05/31 00:26:11;;;;;;;5.05;2.33;;;10.80;73.50;;;;;;5054903;28;20029;-68
2022/05/31 00:28:36;;;;;;;4.18;1.73;;;10.70;73.70;;;;;;5054704;28;20029;-69
2022/05/31 00:31:03;;;;;;;6.47;1.80;;;10.80;73.40;;;;;;5048559;28;20096;-68
2022/05/31 00:33:30;;;;;;;4.57;1.88;;;10.80;73.30;;;;;;5055410;28;20082;-69
2022/05/31 00:35:55;;;;;;;3.95;1.70;;;10.80;73.50;;;;;;5056024;28;20091;-69
2022/05/31 00:38:24;;;;;;;4.63;1.88;;;10.80;73.30;;;;;;5055185;28;20396;-68
2022/05/31 00:40:50;;;;;;;3.92;2.03;;;10.80;73.50;;;;;;5054740;28;20025;-68
2022/05/31 00:43:22;;;;;;;4.30;1.80;;;10.70;73.70;;;;;;5055124;28;20029;-68
2022/05/31 00:46:01;;;;;;;5.80;2.00;;;10.70;73.60;;;;;;5053858;28;20368;-68
2022/05/31 00:48:35;;;;;;;5.07;1.88;;;10.70;73.60;;;;;;5051094;28;20021;-68
2022/05/31 00:51:18;;;;;;;4.82;1.80;;;10.70;74.00;;;;;;5055243;28;20033;-68
2022/05/31 00:53:51;;;;;;;4.05;1.90;;;10.60;74.00;;;;;;5040122;28;20292;-70
2022/05/31 00:56:20;;;;;;;5.82;2.05;;;10.60;74.20;;;;;;5046067;28;20028;-70
2022/05/31 00:58:56;;;;;;;6.13;1.98;;;10.50;74.40;;;;;;5051476;28;20074;-69
2022/05/31 01:01:26;;;;;;;5.70;1.90;;;10.50;74.60;;;;;;5055138;28;20033;-69
2022/05/31 01:03:52;;;;;;;3.58;1.90;;;10.40;74.80;;;;;;5053394;28;20322;-69
2022/05/31 01:06:18;;;;;;;4.45;2.05;;;10.40;74.90;;;;;;5054699;28;20075;-68
2022/05/31 01:08:46;;;;;;;4.68;2.13;;;10.30;75.30;;;;;;5055006;28;20414;-69
2022/05/31 01:11:21;;;;;;;4.70;2.00;;;10.30;75.40;;;;;;5047190;28;20041;-69
2022/05/31 01:13:46;;;;;;;4.28;2.22;;;10.30;75.60;;;;;;5054127;28;20111;-69
2022/05/31 01:16:14;;;;;;;3.38;1.63;;;10.30;75.80;;;;;;5054660;28;20104;-69
2022/05/31 01:18:40;;;;;;;5.47;1.83;;;10.30;75.90;;;;;;5054398;28;20044;-69
2022/05/31 01:21:06;;;;;;;5.43;2.33;;;10.30;76.30;;;;;;5052163;28;20424;-69
2022/05/31 01:23:50;;;;;;;6.65;2.10;;;10.30;76.20;;;;;;5045221;28;20029;-69
2022/05/31 01:26:33;;;;;;;4.25;1.88;;;10.30;76.40;;;;;;5052179;28;20029;-68
2022/05/31 01:29:19;;;;;;;6.38;1.90;;;10.30;76.30;;;;;;5055727;28;20045;-69
2022/05/31 01:31:52;;;;;;;4.32;1.88;;;10.20;76.70;;;;;;5049323;28;20024;-68
2022/05/31 01:34:27;;;;;;;3.72;1.77;;;10.20;76.80;;;;;;5045983;28;20048;-69
2022/05/31 01:36:55;;;;;;;4.30;2.10;;;10.30;76.80;;;;;;5053481;28;20016;-68
2022/05/31 01:39:51;;;;;;;5.38;1.88;;;10.30;76.50;;;;;;5055710;28;20052;-69
2022/05/31 01:42:24;;;;;;;3.85;2.03;;;10.40;76.70;;;;;;5045362;28;20033;-69
2022/05/31 01:45:08;;;;;;;4.47;2.38;;;10.40;76.70;;;;;;5053841;28;20378;-68
2022/05/31 01:47:34;;;;;;;5.82;1.70;;;10.50;76.40;;;;;;5048019;28;20033;-69
2022/05/31 01:50:01;;;;;;;4.90;2.00;;;10.50;76.70;;;;;;5054675;28;20036;-68
2022/05/31 01:52:27;;;;;;;4.82;1.88;;;10.50;76.50;;;;;;5054630;28;20024;-69
2022/05/31 01:54:53;;;;;;;6.20;1.90;;;10.50;76.50;;;;;;5054667;28;20113;-69
2022/05/31 01:57:22;;;;;;;4.53;2.10;;;10.50;76.70;;;;;;5053257;28;20025;-69
2022/05/31 01:59:55;;;;;;;4.68;1.90;;;10.40;77.10;;;;;;5054525;28;20032;-68
2022/05/31 02:02:21;;;;;;;4.88;1.95;;;10.40;77.60;;;;;;5055319;28;20556;-69
2022/05/31 02:04:47;;;;;;;4.88;1.90;;;10.30;78.10;;;;;;5052373;28;20025;-68
2022/05/31 02:07:19;;;;;;;5.68;1.80;;;10.30;78.40;;;;;;5054608;28;20029;-68
2022/05/31 02:09:47;;;;;;;5.10;2.80;;;10.10;79.10;;;;;;5053529;28;20483;-68
2022/05/31 02:12:13;;;;;;;4.63;2.00;;;10.10;79.80;;;;;;5054127;28;20047;-69
2022/05/31 02:14:40;;;;;;;4.13;2.10;;;10.10;80.10;;;;;;5052131;28;20032;-68
2022/05/31 02:17:06;;;;;;;4.43;2.10;;;10.20;80.10;;;;;;5054889;28;20127;-69
2022/05/31 02:19:33;;;;;;;6.43;2.97;;;10.30;80.00;;;;;;5053312;28;20065;-68
2022/05/31 02:22:07;;;;;;;3.67;1.83;;;10.40;80.00;;;;;;5054605;28;20434;-69
2022/05/31 02:24:32;;;;;;;;;;;10.50;79.30;;;;;;5054692;28;20067;-69
2022/05/31 02:26:59;;;;;;;4.95;2.03;;;10.40;79.60;;;;;;5052690;28;19955;-68
2022/05/31 02:29:28;;;;;;;6.18;2.15;;;10.20;80.20;;;;;;5054801;28;20437;-69
2022/05/31 02:31:57;;;;;;;5.25;2.03;;;10.10;80.00;;;;;;5051600;28;20472;-69
2022/05/31 02:34:25;;;;;;;4.28;1.92;;;10.20;79.60;;;;;;5054247;28;20052;-68
2022/05/31 02:36:51;;;;;;;5.18;2.20;;;10.10;80.60;;;;;;5054105;28;20410;-68
2022/05/31 02:39:17;;;;;;;6.22;2.50;;;10.00;81.80;;;;;;5054610;28;20049;-68
2022/05/31 02:41:44;;;;;;;4.43;2.30;;;10.20;82.60;;;;;;5052496;28;20040;-69
2022/05/31 02:44:10;;;;;;;5.55;2.22;;;10.20;81.30;;;;;;5053215;28;20036;-68
2022/05/31 02:46:36;;;;;;;5.55;2.20;;;10.10;83.00;;;;;;5053308;28;20086;-68
2022/05/31 02:49:04;;;;;;;4.68;2.30;;;10.20;83.90;;;;;;5054881;28;20100;-68
2022/05/31 02:51:34;;;;;;;5.47;2.00;;;10.30;82.90;;;;;;5053756;28;20425;-69
2022/05/31 02:54:00;;;;;;;4.15;2.15;;;10.30;82.10;;;;;;5052203;28;20024;-69
2022/05/31 02:56:25;;;;;;;4.10;2.20;;;10.30;83.30;;;;;;5052619;28;20025;-69
2022/05/31 02:58:51;;;;;;;9.18;2.45;;;10.60;83.20;;;;;;5053074;28;20025;-68
2022/05/31 03:01:26;;;;;;;5.00;2.10;;;10.80;82.60;;;;;;5052223;28;20036;-69
2022/05/31 03:03:51;;;;;;;5.63;2.10;;;11.00;81.70;;;;;;5051676;28;20058;-69
2022/05/31 03:06:21;;;;;;;8.57;2.97;;;11.10;81.60;;;;;;5051853;28;20408;-68
2022/05/31 03:08:48;;;;;;;4.75;2.20;;;11.10;81.40;;;;;;5045695;28;20044;-68
2022/05/31 03:11:44;;;;;;;4.47;2.10;;;11.10;81.20;;;;;;5050338;28;20124;-68
2022/05/31 03:14:28;;;;;;;4.68;2.33;;;11.30;80.70;;;;;;5051207;28;20017;-68
2022/05/31 03:16:59;;;;;;;;;;;11.40;80.60;;;;;;5052724;28;20025;-68
2022/05/31 03:19:29;;;;;;;3.90;2.20;;;11.20;79.50;;;;;;5053120;28;19909;-69
2022/05/31 03:22:00;;;;;;;5.60;2.10;;;11.10;81.00;;;;;;5055651;28;20025;-69
2022/05/31 03:24:38;;;;;;;4.85;2.25;;;10.80;80.80;;;;;;5044921;28;20036;-68
2022/05/31 03:27:06;;;;;;;5.00;2.60;;;10.50;82.00;;;;;;5044901;28;20055;-68
2022/05/31 03:29:31;;;;;;;6.07;2.30;;;10.30;83.30;;;;;;5056193;28;20426;-68
2022/05/31 03:32:00;;;;;;;4.85;2.38;;;10.40;83.80;;;;;;5056548;28;20108;-68
2022/05/31 03:34:26;;;;;;;4.43;2.30;;;10.40;84.30;;;;;;5056084;28;20056;-68
2022/05/31 03:36:54;;;;;;;3.80;2.15;;;10.50;83.70;;;;;;5056438;28;20433;-68
2022/05/31 03:39:20;;;;;;;5.80;2.20;;;10.80;83.00;;;;;;5050452;28;20390;-68
2022/05/31 03:41:46;;;;;;;5.03;2.28;;;10.90;82.60;;;;;;5055323;28;20115;-68
2022/05/31 03:44:12;;;;;;;5.00;2.20;;;10.90;82.50;;;;;;5055034;28;20406;-68
2022/05/31 03:46:38;;;;;;;4.55;2.08;;;11.00;82.60;;;;;;5048757;28;20029;-68
2022/05/31 03:49:03;;;;;;;4.32;2.28;;;10.90;82.80;;;;;;5055243;28;20040;-70
2022/05/31 03:51:29;;;;;;;6.07;2.50;;;11.00;82.60;;;;;;5056523;28;20074;-69
2022/05/31 03:53:55;;;;;;;5.97;2.05;;;11.10;82.40;;;;;;5053740;28;20436;-69
2022/05/31 03:56:20;;;;;;;4.20;2.22;;;11.20;82.40;;;;;;5054925;28;20317;-70
2022/05/31 03:58:46;;;;;;;4.82;2.00;;;11.20;82.20;;;;;;5055526;28;20025;-69
2022/05/31 04:01:12;;;;;;;4.82;1.73;;;11.20;82.40;;;;;;5048097;28;20024;-69
2022/05/31 04:03:37;;;;;;;3.85;1.90;;;11.20;82.80;;;;;;5053283;28;20025;-69
2022/05/31 04:06:03;;;;;;;6.22;1.90;;;11.10;83.60;;;;;;5053977;28;20024;-69
2022/05/31 04:08:28;;;;;;;6.25;2.33;;;11.10;84.00;;;;;;5053301;28;20414;-69
2022/05/31 04:10:55;;;;;;;4.80;1.83;;;11.40;83.90;;;;;;5048317;28;20108;-69
2022/05/31 04:13:22;;;;;;;3.42;1.88;;;11.50;83.70;;;;;;5051272;28;20029;-68
2022/05/31 04:15:49;;;;;;;9.85;1.88;;;11.60;83.50;;;;;;5055657;28;20025;-68
2022/05/31 04:18:16;;;;;;;6.55;1.80;;;11.70;83.30;;;;;;5055010;28;20418;-68
2022/05/31 04:20:42;;;;;;;3.90;1.80;;;11.70;83.10;;;;;;5052170;28;20033;-69
2022/05/31 04:26:05;;;;;;;3.85;1.92;;;11.80;82.80;;;;;;5055777;28;20483;-69
2022/05/31 04:28:31;;;;;;;4.53;1.60;;;11.70;83.00;;;;;;5042517;28;20021;-69
2022/05/31 04:30:58;;;;;;;6.57;2.10;;;11.70;83.10;;;;;;5050761;28;20052;-69
2022/05/31 04:33:24;;;;;;;6.50;2.38;;;11.70;82.80;;;;;;5053814;28;20021;-69
2022/05/31 04:36:13;;;;;;;4.68;1.95;;;11.50;82.70;;;;;;5054551;28;20035;-68
2022/05/31 04:38:39;;;;;;;4.22;2.40;;;11.20;84.00;;;;;;5055906;28;20406;-69
2022/05/31 04:41:07;;;;;;;6.40;3.13;;;11.00;84.60;;;;;;5053496;28;20128;-68
2022/05/31 04:43:35;;;;;;;5.32;2.70;;;10.80;84.80;;;;;;5037177;28;20026;-69
2022/05/31 04:46:15;;;;;;;7.22;2.90;;;10.60;85.60;;;;;;5028509;28;20303;-69
2022/05/31 04:48:44;;;;;;;5.15;2.65;;;10.60;86.00;;;;;;5053327;28;20488;-68
2022/05/31 04:51:12;;;;;;;6.03;3.00;;;10.50;85.40;;;;;;5048527;28;20484;-68
2022/05/31 04:53:40;;;;;;;6.00;2.10;;;10.50;85.60;;;;;;5052277;28;20025;-68
2022/05/31 04:56:09;;;;;;;4.95;2.33;;;10.50;86.10;;;;;;5046031;28;20072;-69
2022/05/31 04:58:35;;;;;;;4.68;2.28;;;10.70;86.50;;;;;;5048629;28;20325;-69
2022/05/31 05:01:01;;;;;;;6.90;2.80;;;10.80;85.80;;;;;;5055375;28;20115;-69
2022/05/31 05:03:29;;;;;;;7.65;3.00;;;10.90;85.40;;;;;;5054722;28;20544;-69
2022/05/31 05:05:59;;;;;;;5.25;2.63;;;11.00;85.10;;;;;;5051988;28;20078;-69
2022/05/31 05:08:25;;;;;;;5.10;2.35;;;11.10;85.50;;;;;;5056437;28;20033;-68
2022/05/31 05:10:51;;;;;;;6.53;2.60;;;11.10;84.60;;;;;;5055566;28;20033;-69
2022/05/31 05:13:17;;;;;;;6.78;2.38;;;10.90;84.60;;;;;;5055447;28;20139;-69
2022/05/31 05:15:43;;;;;;;8.02;2.85;;;10.70;85.50;;;;;;5055499;28;20033;-69
2022/05/31 05:18:09;;;;;;;5.10;2.50;;;10.50;86.20;;;;;;5054246;28;20028;-68
2022/05/31 05:20:38;;;;;;;5.00;2.60;;;10.50;86.50;;;;;;5056485;28;20082;-68
2022/05/31 05:23:07;;;;;;;8.50;3.10;;;10.50;86.30;;;;;;5055438;28;20074;-69
2022/05/31 05:25:33;;;;;;;6.40;2.92;;;10.70;85.50;;;;;;5056078;28;20291;-69
2022/05/31 05:27:59;;;;;;;8.13;3.08;;;11.10;83.40;;;;;;5052246;28;20029;-69
2022/05/31 05:30:40;;;;;;;9.82;4.00;;;11.30;82.90;;;;;;5056156;28;20428;-69
2022/05/31 05:33:06;;;;;;;5.40;2.95;;;11.50;82.50;;;;;;5052492;28;20025;-69
2022/05/31 05:35:33;;;;;;;6.03;2.92;;;11.70;82.30;;;;;;5055101;28;20028;-69
2022/05/31 05:38:01;;;;;;;7.78;2.90;;;11.90;82.10;;;;;;5054029;28;20075;-69
2022/05/31 05:40:27;;;;;;;6.13;2.80;;;12.10;81.80;;;;;;5053954;28;20422;-69
2022/05/31 05:42:52;;;;;;;7.07;2.83;;;12.40;80.90;;;;;;5054943;28;20040;-69
2022/05/31 05:45:18;;;;;;;7.22;2.80;;;12.50;80.50;;;;;;5052249;28;20025;-69
2022/05/31 05:47:45;;;;;;;5.70;3.10;;;12.40;80.30;;;;;;5054997;28;20025;-69
2022/05/31 05:50:11;;;;;;;6.22;2.97;;;12.30;80.30;;;;;;5055958;28;20033;-69
2022/05/31 05:52:39;;;;;;;5.65;2.95;;;12.50;80.60;;;;;;5055894;28;20029;-69
2022/05/31 05:55:05;;;;;;;6.47;2.53;;;12.70;81.20;;;;;;5055731;28;20020;-69
2022/05/31 05:57:35;;;;;;;5.25;2.60;;;12.90;80.90;;;;;;5054507;28;20024;-69
2022/05/31 06:00:01;;;;;;;7.10;3.83;;;12.90;79.90;;;;;;5055223;28;20028;-69
2022/05/31 06:02:32;;;;;;;6.47;3.28;;;12.70;80.80;;;;;;5047193;28;20078;-69
2022/05/31 06:05:16;;;;;;;5.95;3.30;;;12.60;81.10;;;;;;5053845;28;20041;-69
2022/05/31 06:08:09;;;;;;;8.20;3.15;;;12.40;81.50;;;;;;5052786;28;20036;-68
2022/05/31 06:10:44;;;;;;;8.20;3.50;;;12.20;82.40;;;;;;5046086;28;20112;-69
2022/05/31 06:13:16;;;;;;;5.85;3.30;;;12.30;82.10;;;;;;5054298;28;20430;-69
2022/05/31 06:15:46;;;;;;;6.32;2.95;;;12.40;81.30;;;;;;5055600;28;20033;-69
2022/05/31 06:18:20;;;;;;;6.15;3.40;;;12.40;81.30;;;;;;5054388;28;20021;-69
2022/05/31 06:20:49;;;;;;;9.80;4.18;;;12.70;81.00;;;;;;5052446;28;20029;-69
2022/05/31 06:23:15;;;;;;;8.43;3.78;;;13.00;79.80;;;;;;5053632;28;20047;-69
2022/05/31 06:25:41;;;;;;;5.85;3.42;;;12.90;80.00;;;;;;5052118;28;20112;-69
2022/05/31 06:28:08;;;;;;;7.47;3.70;;;12.90;80.90;;;;;;5053529;28;20309;-69
2022/05/31 06:30:37;;;;;;;5.97;3.42;;;12.60;81.60;;;;;;5054405;28;20107;-69
2022/05/31 06:33:04;;;;;;;9.80;3.63;;;12.30;81.70;;;;;;5053431;28;20080;-68
2022/05/31 06:35:30;;;;;;;6.72;3.60;;;12.20;82.00;;;;;;5053493;28;20051;-68
2022/05/31 06:37:55;;;;;;;8.48;3.70;;;12.30;82.60;;;;;;5051879;28;20029;-68
2022/05/31 06:40:21;;;;;;;8.70;4.68;;;12.50;81.90;;;;;;5054484;28;20037;-68
2022/05/31 06:42:47;;;;;;;10.65;5.70;;;12.60;82.50;;;;;;5053283;28;20060;-70
2022/05/31 06:45:12;;;;;;;9.27;5.30;;;12.80;82.70;;;;;;5057083;28;20035;-69
2022/05/31 06:47:41;;;;;;;7.47;3.83;;;13.10;82.10;;;;;;5057351;28;20082;-69
2022/05/31 06:50:07;;;;;;;6.10;3.30;;;13.50;80.80;;;;;;5057196;28;20322;-68
2022/05/31 06:58:03;;;;;;;11.40;3.95;;;14.50;79.00;;;;;;5056896;28;19923;-69
2022/05/31 07:00:29;;;;;;;7.55;3.15;;;14.80;78.10;;;;;;5057303;28;20033;-68
2022/05/31 07:02:55;;;;;;;5.20;2.83;;;14.60;77.90;;;;;;5057184;28;20448;-68
2022/05/31 07:05:22;;;;;;;9.98;3.17;;;14.40;79.00;;;;;;5058127;28;20032;-68
2022/05/31 07:07:51;;;;;;;7.55;2.83;;;14.60;78.90;;;;;;5056856;28;20036;-68
2022/05/31 07:10:16;;;;;;;6.97;3.50;;;14.50;78.40;;;;;;5055847;28;20025;-69
2022/05/31 07:12:43;;;;;;;7.93;3.30;;;14.40;78.00;;;;;;5056627;28;20051;-68
2022/05/31 07:15:10;;;;;;;7.05;2.83;;;14.50;77.60;;;;;;5057950;28;20416;-68
2022/05/31 07:17:35;;;;;;;8.55;3.00;;;14.40;78.70;;;;;;5057451;28;20048;-68
2022/05/31 07:20:02;;;;;;;6.97;3.22;;;14.60;78.60;;;;;;5057827;28;20410;-68
2022/05/31 07:22:28;;;;;;;8.20;3.15;;;14.80;77.30;;;;;;5055855;28;20033;-68
2022/05/31 07:24:54;;;;;;;6.05;2.85;;;15.10;76.80;;;;;;5057369;28;20625;-68
2022/05/31 07:27:19;;;;;;;7.25;2.67;;;15.80;74.80;;;;;;5055311;28;20033;-68
2022/05/31 07:29:45;;;;;;;6.18;2.78;;;16.50;73.80;;;;;;5057769;28;20028;-68
2022/05/31 07:32:11;;;;;;;7.78;3.25;;;17.30;72.30;;;;;;5056240;28;20029;-68
2022/05/31 07:34:36;;;;;;;9.73;2.70;;;17.40;71.30;;;;;;5056609;28;20025;-68
2022/05/31 07:37:05;;;;;;;5.97;2.38;;;18.00;70.50;;;;;;5056271;28;20025;-68
2022/05/31 07:39:31;;;;;;;6.43;2.90;;;18.60;68.90;;;;;;5054682;28;20061;-68
2022/05/31 07:41:58;;;;;;;6.60;2.70;;;19.10;67.50;;;;;;5055265;28;20057;-68
2022/05/31 07:44:25;;;;;;;6.97;2.85;;;18.50;68.00;;;;;;5055296;28;20051;-68
2022/05/31 07:46:51;;;;;;;5.78;2.30;;;18.20;69.90;;;;;;5058101;28;20314;-68
2022/05/31 07:49:19;;;;;;;6.57;2.53;;;18.30;69.00;;;;;;5058424;28;20352;-68
2022/05/31 07:51:45;;;;;;;8.68;2.50;;;18.40;69.10;;;;;;5058094;28;20421;-68
2022/05/31 07:54:11;;;;;;;5.85;2.50;;;18.80;68.70;;;;;;5057146;28;20060;-69
2022/05/31 07:56:36;;;;;;;9.85;2.40;;;18.90;67.90;;;;;;5055871;28;20029;-68
2022/05/31 07:59:03;;;;;;;8.45;2.75;;;18.60;69.10;;;;;;5057148;28;20037;-68
2022/05/31 08:01:29;;;;;;;7.05;2.55;;;18.30;69.70;;;;;;5057925;28;20310;-68
2022/05/31 08:03:55;;;;;;;6.07;2.50;;;18.30;69.90;;;;;;5057992;28;20024;-68
2022/05/31 08:06:23;;;;;;;4.80;2.42;;;19.10;69.10;;;;;;5056744;28;20456;-68
2022/05/31 08:08:49;;;;;;;10.05;2.53;;;19.60;66.70;;;;;;5057903;28;20040;-68
2022/05/31 08:11:30;;;;;;;7.75;2.10;;;19.70;67.40;;;;;;5056416;28;20090;-68
2022/05/31 08:13:58;;;;;;;5.05;2.33;;;20.80;65.40;;;;;;5055054;28;20100;-68
2022/05/31 08:16:29;;;;;;;5.22;2.45;;;20.80;63.60;;;;;;5055841;28;20017;-68
2022/05/31 08:18:56;;;;;;;6.05;2.40;;;20.20;66.00;;;;;;5056814;28;20147;-68
2022/05/31 08:21:27;;;;;;;8.02;2.42;;;21.00;66.00;;;;;;5057373;28;20111;-69
2022/05/31 08:24:00;;;;;;;8.32;2.20;;;21.90;62.80;;;;;;5057290;28;20055;-69
2022/05/31 08:26:26;;;;;;;5.93;2.20;;;22.40;62.80;;;;;;5036262;28;20083;-68
2022/05/31 08:28:52;;;;;;;6.93;2.90;;;22.60;61.30;;;;;;5056525;28;20041;-68
2022/05/31 08:31:31;;;;;;;4.88;2.00;;;22.70;61.40;;;;;;5056161;28;20606;-69
2022/05/31 08:33:59;;;;;;;6.43;2.17;;;23.30;60.90;;;;;;5052038;28;20020;-69
2022/05/31 08:36:25;;;;;;;4.72;1.83;;;23.70;60.00;;;;;;5055980;28;20021;-68
2022/05/31 08:38:51;;;;;;;6.80;1.73;;;23.70;59.70;;;;;;5051997;28;20048;-69
2022/05/31 08:41:27;;;;;;;4.70;2.40;;;23.80;60.40;;;;;;5050837;28;20036;-69
2022/05/31 08:43:57;;;;;;;5.40;1.63;;;24.10;60.20;;;;;;5055845;28;20057;-69
2022/05/31 08:46:34;;;;;;;5.97;2.03;;;25.10;58.00;;;;;;5056062;28;20043;-68
2022/05/31 08:49:21;;;;;;;6.40;2.28;;;25.30;56.70;;;;;;5056736;28;20492;-68
2022/05/31 08:52:05;;;;;;;6.00;2.22;;;25.00;56.50;;;;;;5050894;28;20437;-67
2022/05/31 08:57:36;;;;;;;4.57;1.63;;;25.30;56.90;;;;;;5055197;28;20040;-69
2022/05/31 09:00:11;;;;;;;6.32;2.42;;;24.90;56.00;;;;;;5056233;28;20017;-68
2022/05/31 09:02:47;;;;;;;5.57;2.30;;;25.30;55.70;;;;;;5055819;28;20295;-68
2022/05/31 09:05:27;;;;;;;4.32;1.50;;;25.10;55.10;;;;;;5055007;28;20029;-68
2022/05/31 09:08:02;;;;;;;6.82;2.38;;;24.20;55.00;;;;;;5039805;28;20116;-68
2022/05/31 09:10:30;;;;;;;6.18;2.30;;;22.90;57.00;;;;;;5056185;28;20025;-68
2022/05/31 09:13:04;;;;;;;6.32;2.28;;;22.70;58.10;;;;;;5052527;28;20032;-68
2022/05/31 09:15:45;;;;;;;5.47;2.00;;;23.20;58.50;;;;;;5052943;28;20491;-68
2022/05/31 09:18:38;;;;;;;4.03;1.75;;;23.20;58.10;;;;;;5054065;28;20090;-68
2022/05/31 09:21:13;;;;;;;7.75;1.80;;;23.60;56.70;;;;;;5056075;28;20025;-67
2022/05/31 09:23:45;;;;;;;5.05;1.60;;;24.00;56.00;;;;;;5053429;28;20636;-67
2022/05/31 09:26:47;;;;;;;4.45;1.90;;;23.60;57.10;;;;;;5053844;28;20449;-67
2022/05/31 09:29:21;;;;;;;6.60;2.42;;;23.00;57.60;;;;;;5051801;28;20040;-68
2022/05/31 09:32:27;;;;;;;8.57;2.33;;;23.40;59.40;;;;;;5054875;28;20119;-68
2022/05/31 09:35:07;;;;;;;8.05;2.10;;;23.90;58.00;;;;;;5053844;28;20033;-68
2022/05/31 09:37:38;;;;;;;5.50;2.10;;;23.80;57.40;;;;;;5054874;28;20048;-70
2022/05/31 09:40:22;;;;;;;5.88;2.17;;;24.10;56.80;;;;;;5040684;28;20041;-70
2022/05/31 09:43:01;;;;;;;4.15;1.48;;;23.60;57.50;;;;;;5053491;28;20053;-69
2022/05/31 09:45:32;;;;;;;5.10;1.50;;;22.20;57.00;;;;;;5054576;28;20041;-68
2022/05/31 09:48:00;;;;;;;4.97;1.77;;;22.10;57.30;;;;;;5054047;28;20081;-69
2022/05/31 09:50:28;;;;;;;6.82;2.17;;;22.20;57.60;;;;;;5054576;28;20021;-69
2022/05/31 09:52:59;;;;;;;5.13;1.77;;;22.70;57.10;;;;;;5054600;28;20106;-68
2022/05/31 09:58:41;;;;;;;4.90;1.90;;;24.30;55.30;;;;;;5041848;28;20032;-68
2022/05/31 10:01:25;;;;;;;4.80;1.80;;;24.30;54.10;;;;;;5054729;28;20049;-67
2022/05/31 10:04:00;;;;;;;3.78;1.70;;;24.20;55.50;;;;;;5053382;28;20484;-68
2022/05/31 10:06:30;;;;;;;3.83;1.73;;;24.60;54.10;;;;;;5055299;28;20033;-68
2022/05/31 10:08:56;;;;;;;7.20;1.73;;;25.50;52.50;;;;;;5050723;28;20377;-68
2022/05/31 10:11:34;;;;;;;5.15;1.70;;;26.20;51.50;;;;;;5054146;28;20044;-68
2022/05/31 10:14:01;;;;;;;4.28;1.50;;;25.50;51.10;;;;;;5052350;28;20414;-68
2022/05/31 10:16:32;;;;;;;5.03;1.77;;;25.00;53.30;;;;;;5053286;28;20024;-68
2022/05/31 10:19:01;;;;;;;5.63;1.35;;;25.40;53.30;;;;;;5053063;28;20025;-68
2022/05/31 10:21:33;;;;;;;4.55;1.48;;;27.00;50.60;;;;;;5056881;28;20100;-69
2022/05/31 10:24:29;;;;;;;4.78;1.40;;;26.70;48.60;;;;;;5059487;28;20025;-68
2022/05/31 10:27:13;;;;;;;5.72;1.60;;;25.90;50.80;;;;;;5056435;28;20119;-68
2022/05/31 10:29:45;;;;;;;4.25;1.52;;;25.70;50.70;;;;;;5057732;28;20317;-68
2022/05/31 10:32:30;;;;;;;6.50;1.48;;;25.90;50.00;;;;;;5056734;28;20021;-68
2022/05/31 10:35:16;;;;;;;4.75;1.30;;;25.80;50.10;;;;;;5054142;28;20404;-68
2022/05/31 10:38:09;;;;;;;4.82;1.65;;;26.30;49.30;;;;;;5054786;28;20052;-67
2022/05/31 10:40:40;;;;;;;7.20;1.50;;;25.90;48.70;;;;;;5049918;28;20029;-67
2022/05/31 10:43:46;;;;;;;3.47;1.48;;;26.20;49.10;;;;;;5055438;28;20251;-68
2022/05/31 10:46:25;;;;;;;4.43;1.67;;;26.40;47.90;;;;;;5044637;28;20024;-69
2022/05/31 10:48:55;;;;;;;4.18;1.60;;;26.30;48.00;;;;;;5052771;28;20068;-69
2022/05/31 10:51:41;;;;;;;3.75;1.38;;;26.40;48.10;;;;;;5058423;28;20025;-68
2022/05/31 10:54:38;;;;;;;6.65;1.30;;;26.20;49.90;;;;;;5053580;28;20072;-68
2022/05/31 10:57:22;;;;;;;2.80;1.20;;;25.20;50.30;;;;;;5054826;28;20033;-67
2022/05/31 10:59:48;;;;;;;;;;;24.70;53.50;;;;;;5056205;28;21243;-68
2022/05/31 11:02:34;;;;;;;4.43;1.45;;;24.30;52.70;;;;;;5056641;28;19916;-68
2022/05/31 11:05:11;;;;;;;4.22;1.33;;;23.90;54.00;;;;;;5053328;28;20127;-68
2022/05/31 11:13:59;;;;;;;4.45;1.55;;;24.40;53.50;;;;;;5054276;28;20112;-68
2022/05/31 11:17:00;;;;;;;5.78;1.75;;;24.90;51.70;;;;;;5055613;28;20057;-68
2022/05/31 11:19:35;;;;;;;5.88;1.80;;;24.30;51.00;;;;;;5054540;28;20031;-68
2022/05/31 11:22:32;;;;;;;9.85;1.90;;;23.40;51.70;;;;;;5055388;28;20052;-68
2022/05/31 11:25:31;;;;;;;3.97;1.35;;;23.10;53.10;;;;;;5055411;28;20029;-68
2022/05/31 11:28:09;;;;;;;6.22;1.63;;;23.60;53.50;;;;;;5053271;28;20028;-68
2022/05/31 11:30:49;;;;;;;4.50;1.30;;;24.60;50.40;;;;;;5054303;28;20103;-68
2022/05/31 11:33:52;;;;;;;4.47;1.35;;;25.00;49.90;;;;;;5054380;28;20032;-68
2022/05/31 11:36:51;;;;;;;6.20;1.30;;;26.30;48.10;;;;;;5054991;28;20025;-67
2022/05/31 11:39:20;;;;;;;5.35;1.30;;;27.60;47.90;;;;;;5052052;28;20048;-68
2022/05/31 11:42:09;;;;;;;3.08;1.10;;;26.70;47.00;;;;;;5055242;28;20029;-67
2022/05/31 11:45:17;;;;;;;3.78;1.30;;;25.90;47.70;;;;;;5052490;28;20025;-67
2022/05/31 11:48:11;;;;;;;3.38;1.20;;;26.20;49.00;;;;;;5037195;28;20460;-67
2022/05/31 11:51:08;;;;;;;3.97;1.58;;;26.00;47.50;;;;;;5048163;28;20059;-66
2022/05/31 11:53:40;;;;;;;2.80;1.23;;;25.40;47.70;;;;;;5056103;28;20108;-68
2022/05/31 11:56:22;;;;;;;3.25;1.30;;;24.90;47.10;;;;;;5054915;28;20083;-67
2022/05/31 11:58:57;;;;;;;;;;;24.50;49.20;;;;;;5051254;28;20029;-67
2022/05/31 12:01:41;;;;;;;5.75;1.90;;;24.00;49.50;;;;;;5055476;28;19908;-68
2022/05/31 12:04:34;;;;;;;5.22;1.77;;;23.30;51.20;;;;;;5054149;28;20414;-68
2022/05/31 12:07:25;;;;;;;3.47;1.38;;;23.10;51.00;;;;;;5055916;28;20041;-68
2022/05/31 12:10:13;;;;;;;4.63;1.33;;;23.30;50.30;;;;;;5055912;28;20040;-68
2022/05/31 12:12:42;;;;;;;4.00;1.50;;;23.50;51.00;;;;;;5050859;28;20024;-68
2022/05/31 12:15:20;;;;;;;4.20;1.30;;;23.70;50.30;;;;;;5054468;28;20028;-69
2022/05/31 12:17:55;;;;;;;3.45;1.10;;;23.60;50.70;;;;;;5056836;28;20021;-68
2022/05/31 12:20:41;;;;;;;3.35;1.20;;;23.70;50.20;;;;;;5055971;28;20438;-67
2022/05/31 12:23:45;;;;;;;2.85;1.13;;;23.80;50.60;;;;;;5053569;28;20032;-68
2022/05/31 12:26:57;;;;;;;3.50;1.23;;;24.00;49.20;;;;;;5054891;28;20037;-68
2022/05/31 12:29:30;;;;;;;4.60;1.52;;;24.50;49.80;;;;;;5058324;28;20039;-67
2022/05/31 12:32:24;;;;;;;2.92;1.08;;;25.40;49.30;;;;;;5056853;28;20076;-69
2022/05/31 12:34:50;;;;;;;5.20;1.30;;;25.80;49.30;;;;;;5055112;28;20326;-69
2022/05/31 12:37:16;;;;;;;4.53;1.20;;;25.50;48.70;;;;;;5054573;28;20037;-69
2022/05/31 12:39:44;;;;;;;3.15;1.10;;;25.40;47.70;;;;;;5054020;28;20037;-68
2022/05/31 12:42:13;;;;;;;8.95;1.35;;;24.80;49.50;;;;;;5047880;28;20439;-68
2022/05/31 12:44:47;;;;;;;4.47;1.20;;;24.10;49.10;;;;;;5053552;28;20037;-69
2022/05/31 12:47:31;;;;;;;;;;;23.50;50.00;;;;;;5052532;28;20158;-68
2022/05/31 12:50:02;;;;;;;2.63;1.00;;;23.40;51.00;;;;;;5051999;28;19915;-68
2022/05/31 12:55:00;;;;;;;7.70;1.77;;;24.30;47.80;;;;;;5051547;28;20036;-68
2022/05/31 13:00:35;;;;;;;4.78;1.40;;;22.90;50.50;;;;;;5054040;28;20036;-68
2022/05/31 13:03:21;;;;;;;3.30;1.40;;;22.30;52.30;;;;;;5055084;28;20071;-68
2022/05/31 13:06:07;;;;;;;4.90;1.35;;;22.20;52.00;;;;;;5049445;28;20060;-67
2022/05/31 13:09:10;;;;;;;4.93;1.48;;;22.10;52.40;;;;;;5052302;28;20021;-69
2022/05/31 13:20:13;;;;;;;5.50;1.50;;;21.50;52.10;;;;;;5054735;28;20067;-67
2022/05/31 13:22:43;;;;;;;7.45;2.20;;;21.60;52.10;;;;;;5052889;28;20033;-68
2022/05/31 13:25:12;;;;;;;4.18;1.20;;;21.70;51.50;;;;;;5050749;28;20021;-68
2022/05/31 13:27:56;;;;;;;8.02;2.08;;;22.10;51.30;;;;;;5050846;28;20105;-67
2022/05/31 13:30:28;;;;;;;4.90;1.60;;;22.30;50.50;;;;;;5054624;28;20021;-68
2022/05/31 13:32:55;;;;;;;6.43;1.70;;;22.30;51.20;;;;;;5053519;28;20032;-67
2022/05/31 13:35:27;;;;;;;5.47;1.48;;;22.20;51.50;;;;;;5054357;28;20021;-68
2022/05/31 13:37:59;;;;;;;4.75;1.77;;;21.90;52.90;;;;;;5043066;28;20041;-67
2022/05/31 13:40:47;;;;;;;4.20;1.27;;;21.80;52.80;;;;;;5056558;28;20048;-68
2022/05/31 13:43:33;;;;;;;4.70;1.40;;;21.70;53.10;;;;;;5050170;28;20064;-68
2022/05/31 13:46:03;;;;;;;4.85;1.20;;;21.60;52.80;;;;;;5051046;28;20090;-68
2022/05/31 13:48:36;;;;;;;3.17;1.23;;;21.70;53.20;;;;;;5046057;28;20021;-68
2022/05/31 13:51:06;;;;;;;5.03;1.50;;;21.60;53.20;;;;;;5043209;28;20041;-68